sensor_id;sensor_type;location;lat;lon;timestamp;P1;durP1;ratioP1;P2;durP2;ratioP2
57605;SDS011;43430;48.204;11.556;2023-06-10T00:02:25;7.45;;;4.93;;
57605;SDS011;43430;48.204;11.556;2023-06-10T00:04:51;7.32;;;5.25;;
57605;SDS011;43430;48.204;11.556;2023-06-10T00:07:17;7.13;;;5.35;;
57605;SDS011;43430;48.204;11.556;2023-06-10T00:09:42;7.97;;;5.35;;
57605;SDS011;43430;48.204;11.556;2023-06-10T00:12:08;7.15;;;5.20;;
57605;SDS011;43430;48.204;11.556;2023-06-10T00:14:37;10.27;;;5.00;;
57605;SDS011;43430;48.204;11.556;2023-06-10T00:17:03;8.27;;;5.25;;
57605;SDS011;43430;48.204;11.556;2023-06-10T00:19:29;6.50;;;4.95;;
57605;SDS011;43430;48.204;11.556;2023-06-10T00:21:55;6.10;;;4.80;;
57605;SDS011;43430;48.204;11.556;2023-06-10T00:24:22;7.68;;;5.40;;
57605;SDS011;43430;48.204;11.556;2023-06-10T00:26:47;8.35;;;5.35;;
57605;SDS011;43430;48.204;11.556;2023-06-10T00:29:12;7.30;;;5.72;;
57605;SDS011;43430;48.204;11.556;2023-06-10T00:31:39;7.18;;;4.90;;
57605;SDS011;43430;48.204;11.556;2023-06-10T00:34:04;9.23;;;5.90;;
57605;SDS011;43430;48.204;11.556;2023-06-10T00:36:30;6.35;;;5.10;;
57605;SDS011;43430;48.204;11.556;2023-06-10T00:38:56;7.13;;;5.43;;
57605;SDS011;43430;48.204;11.556;2023-06-10T00:41:22;7.43;;;5.88;;
57605;SDS011;43430;48.204;11.556;2023-06-10T00:43:47;8.95;;;5.97;;
57605;SDS011;43430;48.204;11.556;2023-06-10T00:46:13;8.50;;;6.20;;
57605;SDS011;43430;48.204;11.556;2023-06-10T00:48:42;8.02;;;5.63;;
57605;SDS011;43430;48.204;11.556;2023-06-10T00:51:09;7.97;;;5.75;;
57605;SDS011;43430;48.204;11.556;2023-06-10T00:53:36;8.38;;;6.10;;
57605;SDS011;43430;48.204;11.556;2023-06-10T00:56:04;6.93;;;5.18;;
57605;SDS011;43430;48.204;11.556;2023-06-10T00:58:29;6.68;;;5.97;;
57605;SDS011;43430;48.204;11.556;2023-06-10T01:00:56;9.27;;;6.47;;
57605;SDS011;43430;48.204;11.556;2023-06-10T01:03:22;7.88;;;6.78;;
57605;SDS011;43430;48.204;11.556;2023-06-10T01:05:49;7.55;;;5.32;;
57605;SDS011;43430;48.204;11.556;2023-06-10T01:11:35;7.05;;;5.25;;
57605;SDS011;43430;48.204;11.556;2023-06-10T01:14:05;7.00;;;5.22;;
57605;SDS011;43430;48.204;11.556;2023-06-10T01:16:32;9.18;;;6.25;;
57605;SDS011;43430;48.204;11.556;2023-06-10T01:19:00;8.65;;;5.75;;
57605;SDS011;43430;48.204;11.556;2023-06-10T01:21:25;8.95;;;6.78;;
57605;SDS011;43430;48.204;11.556;2023-06-10T01:23:52;7.90;;;6.35;;
57605;SDS011;43430;48.204;11.556;2023-06-10T01:26:19;9.00;;;6.78;;
57605;SDS011;43430;48.204;11.556;2023-06-10T01:28:52;7.40;;;5.30;;
57605;SDS011;43430;48.204;11.556;2023-06-10T01:31:34;8.63;;;6.40;;
57605;SDS011;43430;48.204;11.556;2023-06-10T01:34:13;7.60;;;5.25;;
57605;SDS011;43430;48.204;11.556;2023-06-10T01:36:41;8.35;;;5.97;;
57605;SDS011;43430;48.204;11.556;2023-06-10T01:39:10;8.00;;;5.55;;
57605;SDS011;43430;48.204;11.556;2023-06-10T01:41:36;8.65;;;5.55;;
57605;SDS011;43430;48.204;11.556;2023-06-10T01:44:02;8.60;;;5.78;;
57605;SDS011;43430;48.204;11.556;2023-06-10T01:46:28;8.30;;;5.78;;
57605;SDS011;43430;48.204;11.556;2023-06-10T01:48:53;7.78;;;5.80;;
57605;SDS011;43430;48.204;11.556;2023-06-10T01:51:19;10.30;;;6.32;;
57605;SDS011;43430;48.204;11.556;2023-06-10T01:53:44;8.13;;;6.05;;
57605;SDS011;43430;48.204;11.556;2023-06-10T01:56:09;7.15;;;5.50;;
57605;SDS011;43430;48.204;11.556;2023-06-10T01:58:35;7.68;;;5.70;;
57605;SDS011;43430;48.204;11.556;2023-06-10T02:01:00;8.02;;;5.85;;
57605;SDS011;43430;48.204;11.556;2023-06-10T02:03:25;9.38;;;6.30;;
57605;SDS011;43430;48.204;11.556;2023-06-10T02:05:51;7.47;;;5.95;;
57605;SDS011;43430;48.204;11.556;2023-06-10T02:08:16;7.63;;;5.63;;
57605;SDS011;43430;48.204;11.556;2023-06-10T02:10:41;7.38;;;5.50;;
57605;SDS011;43430;48.204;11.556;2023-06-10T02:13:07;7.70;;;5.95;;
57605;SDS011;43430;48.204;11.556;2023-06-10T02:15:32;7.70;;;5.57;;
57605;SDS011;43430;48.204;11.556;2023-06-10T02:17:58;9.80;;;5.95;;
57605;SDS011;43430;48.204;11.556;2023-06-10T02:20:24;8.55;;;5.78;;
57605;SDS011;43430;48.204;11.556;2023-06-10T02:22:49;7.47;;;5.63;;
57605;SDS011;43430;48.204;11.556;2023-06-10T02:25:15;7.80;;;6.05;;
57605;SDS011;43430;48.204;11.556;2023-06-10T02:27:40;8.18;;;5.40;;
57605;SDS011;43430;48.204;11.556;2023-06-10T02:30:06;8.70;;;5.05;;
57605;SDS011;43430;48.204;11.556;2023-06-10T02:32:31;9.48;;;5.70;;
57605;SDS011;43430;48.204;11.556;2023-06-10T02:34:57;8.90;;;6.45;;
57605;SDS011;43430;48.204;11.556;2023-06-10T02:37:22;9.70;;;6.45;;
57605;SDS011;43430;48.204;11.556;2023-06-10T02:39:48;9.45;;;7.03;;
57605;SDS011;43430;48.204;11.556;2023-06-10T02:42:13;8.02;;;6.20;;
57605;SDS011;43430;48.204;11.556;2023-06-10T02:44:38;8.32;;;6.07;;
57605;SDS011;43430;48.204;11.556;2023-06-10T02:47:04;8.15;;;6.45;;
57605;SDS011;43430;48.204;11.556;2023-06-10T02:49:30;10.88;;;6.85;;
57605;SDS011;43430;48.204;11.556;2023-06-10T02:51:55;9.50;;;7.40;;
57605;SDS011;43430;48.204;11.556;2023-06-10T02:54:22;11.38;;;7.20;;
57605;SDS011;43430;48.204;11.556;2023-06-10T02:56:48;10.30;;;7.38;;
57605;SDS011;43430;48.204;11.556;2023-06-10T02:59:14;8.40;;;7.03;;
57605;SDS011;43430;48.204;11.556;2023-06-10T03:01:40;11.85;;;7.28;;
57605;SDS011;43430;48.204;11.556;2023-06-10T03:04:05;9.00;;;6.35;;
57605;SDS011;43430;48.204;11.556;2023-06-10T03:06:31;10.13;;;7.60;;
57605;SDS011;43430;48.204;11.556;2023-06-10T03:09:00;9.13;;;6.60;;
57605;SDS011;43430;48.204;11.556;2023-06-10T03:11:35;11.88;;;6.90;;
57605;SDS011;43430;48.204;11.556;2023-06-10T03:14:00;9.85;;;7.18;;
57605;SDS011;43430;48.204;11.556;2023-06-10T03:16:26;9.70;;;7.85;;
57605;SDS011;43430;48.204;11.556;2023-06-10T03:18:52;9.27;;;7.22;;
57605;SDS011;43430;48.204;11.556;2023-06-10T03:21:18;10.43;;;8.05;;
57605;SDS011;43430;48.204;11.556;2023-06-10T03:23:43;9.52;;;7.88;;
57605;SDS011;43430;48.204;11.556;2023-06-10T03:26:09;8.82;;;6.68;;
57605;SDS011;43430;48.204;11.556;2023-06-10T03:28:36;11.77;;;7.72;;
57605;SDS011;43430;48.204;11.556;2023-06-10T03:31:02;10.82;;;7.25;;
57605;SDS011;43430;48.204;11.556;2023-06-10T03:33:27;10.45;;;8.23;;
57605;SDS011;43430;48.204;11.556;2023-06-10T03:35:52;9.82;;;7.32;;
57605;SDS011;43430;48.204;11.556;2023-06-10T03:38:18;12.27;;;8.40;;
57605;SDS011;43430;48.204;11.556;2023-06-10T03:40:43;9.32;;;7.00;;
57605;SDS011;43430;48.204;11.556;2023-06-10T03:43:08;10.45;;;7.80;;
57605;SDS011;43430;48.204;11.556;2023-06-10T03:45:34;13.30;;;8.57;;
57605;SDS011;43430;48.204;11.556;2023-06-10T03:47:59;12.13;;;8.52;;
57605;SDS011;43430;48.204;11.556;2023-06-10T03:50:26;10.95;;;8.40;;
57605;SDS011;43430;48.204;11.556;2023-06-10T03:52:51;11.98;;;8.32;;
57605;SDS011;43430;48.204;11.556;2023-06-10T03:55:17;11.90;;;7.97;;
57605;SDS011;43430;48.204;11.556;2023-06-10T03:57:42;10.88;;;8.23;;
57605;SDS011;43430;48.204;11.556;2023-06-10T04:00:08;12.40;;;7.80;;
57605;SDS011;43430;48.204;11.556;2023-06-10T04:02:37;12.60;;;8.52;;
57605;SDS011;43430;48.204;11.556;2023-06-10T04:05:11;11.73;;;8.30;;
57605;SDS011;43430;48.204;11.556;2023-06-10T04:07:37;12.65;;;7.68;;
57605;SDS011;43430;48.204;11.556;2023-06-10T04:10:05;12.57;;;9.02;;
57605;SDS011;43430;48.204;11.556;2023-06-10T04:12:31;11.02;;;8.30;;
57605;SDS011;43430;48.204;11.556;2023-06-10T04:14:57;10.57;;;7.90;;
57605;SDS011;43430;48.204;11.556;2023-06-10T04:17:22;13.75;;;8.93;;
57605;SDS011;43430;48.204;11.556;2023-06-10T04:19:48;10.88;;;7.32;;
57605;SDS011;43430;48.204;11.556;2023-06-10T04:22:13;10.75;;;7.68;;
57605;SDS011;43430;48.204;11.556;2023-06-10T04:24:38;11.65;;;8.25;;
57605;SDS011;43430;48.204;11.556;2023-06-10T04:27:04;11.18;;;7.25;;
57605;SDS011;43430;48.204;11.556;2023-06-10T04:29:30;10.88;;;8.07;;
57605;SDS011;43430;48.204;11.556;2023-06-10T04:31:55;14.25;;;8.27;;
57605;SDS011;43430;48.204;11.556;2023-06-10T04:34:21;12.30;;;7.85;;
57605;SDS011;43430;48.204;11.556;2023-06-10T04:36:46;12.73;;;7.53;;
57605;SDS011;43430;48.204;11.556;2023-06-10T04:39:12;9.63;;;7.63;;
57605;SDS011;43430;48.204;11.556;2023-06-10T04:41:37;10.23;;;7.32;;
57605;SDS011;43430;48.204;11.556;2023-06-10T04:44:02;10.63;;;7.65;;
57605;SDS011;43430;48.204;11.556;2023-06-10T04:46:28;10.77;;;7.10;;
57605;SDS011;43430;48.204;11.556;2023-06-10T04:48:55;9.07;;;6.80;;
57605;SDS011;43430;48.204;11.556;2023-06-10T04:51:20;11.55;;;6.93;;
57605;SDS011;43430;48.204;11.556;2023-06-10T04:53:46;10.70;;;7.30;;
57605;SDS011;43430;48.204;11.556;2023-06-10T04:56:11;12.73;;;8.30;;
57605;SDS011;43430;48.204;11.556;2023-06-10T04:58:37;8.85;;;6.70;;
57605;SDS011;43430;48.204;11.556;2023-06-10T05:01:02;10.13;;;6.78;;
57605;SDS011;43430;48.204;11.556;2023-06-10T05:03:28;9.77;;;6.97;;
57605;SDS011;43430;48.204;11.556;2023-06-10T05:05:53;9.02;;;6.65;;
57605;SDS011;43430;48.204;11.556;2023-06-10T05:08:19;9.48;;;7.00;;
57605;SDS011;43430;48.204;11.556;2023-06-10T05:10:45;9.80;;;7.18;;
57605;SDS011;43430;48.204;11.556;2023-06-10T05:13:10;8.70;;;6.50;;
57605;SDS011;43430;48.204;11.556;2023-06-10T05:15:36;9.27;;;6.80;;
57605;SDS011;43430;48.204;11.556;2023-06-10T05:18:02;7.50;;;6.25;;
57605;SDS011;43430;48.204;11.556;2023-06-10T05:20:27;8.75;;;6.38;;
57605;SDS011;43430;48.204;11.556;2023-06-10T05:22:53;9.05;;;7.25;;
57605;SDS011;43430;48.204;11.556;2023-06-10T05:25:19;9.25;;;7.43;;
57605;SDS011;43430;48.204;11.556;2023-06-10T05:27:44;9.20;;;7.47;;
57605;SDS011;43430;48.204;11.556;2023-06-10T05:30:10;9.40;;;7.13;;
57605;SDS011;43430;48.204;11.556;2023-06-10T05:32:36;8.95;;;6.90;;
57605;SDS011;43430;48.204;11.556;2023-06-10T05:35:01;8.95;;;7.53;;
57605;SDS011;43430;48.204;11.556;2023-06-10T05:37:28;9.43;;;7.03;;
57605;SDS011;43430;48.204;11.556;2023-06-10T05:39:54;9.00;;;6.88;;
57605;SDS011;43430;48.204;11.556;2023-06-10T05:42:19;9.43;;;7.35;;
57605;SDS011;43430;48.204;11.556;2023-06-10T05:44:45;9.30;;;6.97;;
57605;SDS011;43430;48.204;11.556;2023-06-10T05:47:10;10.13;;;7.25;;
57605;SDS011;43430;48.204;11.556;2023-06-10T05:49:35;11.38;;;8.73;;
57605;SDS011;43430;48.204;11.556;2023-06-10T05:52:01;9.73;;;7.20;;
57605;SDS011;43430;48.204;11.556;2023-06-10T05:54:26;9.73;;;7.30;;
57605;SDS011;43430;48.204;11.556;2023-06-10T05:56:52;11.25;;;7.38;;
57605;SDS011;43430;48.204;11.556;2023-06-10T05:59:17;12.10;;;7.72;;
57605;SDS011;43430;48.204;11.556;2023-06-10T06:01:42;8.98;;;6.78;;
57605;SDS011;43430;48.204;11.556;2023-06-10T06:04:08;9.48;;;6.63;;
57605;SDS011;43430;48.204;11.556;2023-06-10T06:06:34;9.45;;;6.93;;
57605;SDS011;43430;48.204;11.556;2023-06-10T06:09:00;10.40;;;6.55;;
57605;SDS011;43430;48.204;11.556;2023-06-10T06:11:25;8.55;;;6.15;;
57605;SDS011;43430;48.204;11.556;2023-06-10T06:13:51;7.78;;;6.32;;
57605;SDS011;43430;48.204;11.556;2023-06-10T06:16:16;6.85;;;5.30;;
57605;SDS011;43430;48.204;11.556;2023-06-10T06:18:43;8.20;;;6.05;;
57605;SDS011;43430;48.204;11.556;2023-06-10T06:31:29;11.95;;;6.22;;
57605;SDS011;43430;48.204;11.556;2023-06-10T06:34:00;9.68;;;6.97;;
57605;SDS011;43430;48.204;11.556;2023-06-10T06:43:27;8.90;;;6.10;;
57605;SDS011;43430;48.204;11.556;2023-06-10T06:46:08;9.35;;;5.75;;
57605;SDS011;43430;48.204;11.556;2023-06-10T06:48:33;9.25;;;5.72;;
57605;SDS011;43430;48.204;11.556;2023-06-10T06:51:01;7.80;;;5.13;;
57605;SDS011;43430;48.204;11.556;2023-06-10T06:53:26;9.45;;;6.40;;
57605;SDS011;43430;48.204;11.556;2023-06-10T06:55:52;7.22;;;5.40;;
57605;SDS011;43430;48.204;11.556;2023-06-10T06:58:17;7.07;;;5.32;;
57605;SDS011;43430;48.204;11.556;2023-06-10T07:00:42;8.90;;;5.28;;
57605;SDS011;43430;48.204;11.556;2023-06-10T07:03:08;6.70;;;5.18;;
57605;SDS011;43430;48.204;11.556;2023-06-10T07:05:33;6.65;;;5.03;;
57605;SDS011;43430;48.204;11.556;2023-06-10T07:07:58;7.93;;;5.28;;
57605;SDS011;43430;48.204;11.556;2023-06-10T07:10:24;8.18;;;5.00;;
57605;SDS011;43430;48.204;11.556;2023-06-10T07:12:50;7.03;;;5.50;;
57605;SDS011;43430;48.204;11.556;2023-06-10T07:15:16;6.55;;;5.30;;
57605;SDS011;43430;48.204;11.556;2023-06-10T07:17:42;6.70;;;4.78;;
57605;SDS011;43430;48.204;11.556;2023-06-10T07:20:08;7.78;;;5.40;;
57605;SDS011;43430;48.204;11.556;2023-06-10T07:22:34;6.55;;;4.28;;
57605;SDS011;43430;48.204;11.556;2023-06-10T07:24:59;6.68;;;3.97;;
57605;SDS011;43430;48.204;11.556;2023-06-10T07:27:24;4.95;;;4.05;;
57605;SDS011;43430;48.204;11.556;2023-06-10T07:29:50;5.50;;;4.05;;
57605;SDS011;43430;48.204;11.556;2023-06-10T07:32:16;5.32;;;4.20;;
57605;SDS011;43430;48.204;11.556;2023-06-10T07:34:42;4.88;;;3.65;;
57605;SDS011;43430;48.204;11.556;2023-06-10T07:37:08;5.28;;;4.05;;
57605;SDS011;43430;48.204;11.556;2023-06-10T07:39:33;5.72;;;3.60;;
57605;SDS011;43430;48.204;11.556;2023-06-10T07:41:59;5.25;;;3.58;;
57605;SDS011;43430;48.204;11.556;2023-06-10T07:44:25;4.68;;;3.80;;
57605;SDS011;43430;48.204;11.556;2023-06-10T07:46:50;5.57;;;3.72;;
57605;SDS011;43430;48.204;11.556;2023-06-10T07:49:16;6.18;;;4.28;;
57605;SDS011;43430;48.204;11.556;2023-06-10T07:51:41;5.10;;;3.85;;
57605;SDS011;43430;48.204;11.556;2023-06-10T07:54:07;6.22;;;4.03;;
57605;SDS011;43430;48.204;11.556;2023-06-10T07:56:35;6.13;;;3.95;;
57605;SDS011;43430;48.204;11.556;2023-06-10T07:59:00;6.13;;;4.63;;
57605;SDS011;43430;48.204;11.556;2023-06-10T08:01:26;6.55;;;4.22;;
57605;SDS011;43430;48.204;11.556;2023-06-10T08:03:51;6.20;;;4.10;;
57605;SDS011;43430;48.204;11.556;2023-06-10T08:06:17;5.60;;;3.85;;
57605;SDS011;43430;48.204;11.556;2023-06-10T08:08:42;4.78;;;3.60;;
57605;SDS011;43430;48.204;11.556;2023-06-10T08:11:09;5.28;;;3.38;;
57605;SDS011;43430;48.204;11.556;2023-06-10T08:13:36;4.90;;;3.72;;
57605;SDS011;43430;48.204;11.556;2023-06-10T08:16:01;4.88;;;3.38;;
57605;SDS011;43430;48.204;11.556;2023-06-10T08:18:27;6.97;;;3.90;;
57605;SDS011;43430;48.204;11.556;2023-06-10T08:20:52;5.65;;;3.67;;
57605;SDS011;43430;48.204;11.556;2023-06-10T08:23:17;4.95;;;3.63;;
57605;SDS011;43430;48.204;11.556;2023-06-10T08:25:44;5.90;;;4.53;;
57605;SDS011;43430;48.204;11.556;2023-06-10T08:28:10;5.53;;;4.63;;
57605;SDS011;43430;48.204;11.556;2023-06-10T08:30:35;5.72;;;4.00;;
57605;SDS011;43430;48.204;11.556;2023-06-10T08:33:00;7.35;;;4.28;;
57605;SDS011;43430;48.204;11.556;2023-06-10T08:35:26;5.82;;;4.47;;
57605;SDS011;43430;48.204;11.556;2023-06-10T08:37:51;4.78;;;4.00;;
57605;SDS011;43430;48.204;11.556;2023-06-10T08:40:16;7.40;;;3.92;;
57605;SDS011;43430;48.204;11.556;2023-06-10T08:42:45;8.75;;;3.97;;
57605;SDS011;43430;48.204;11.556;2023-06-10T08:45:18;5.80;;;4.30;;
57605;SDS011;43430;48.204;11.556;2023-06-10T08:47:48;4.75;;;3.85;;
57605;SDS011;43430;48.204;11.556;2023-06-10T08:50:18;5.28;;;4.28;;
57605;SDS011;43430;48.204;11.556;2023-06-10T08:52:44;5.70;;;4.38;;
57605;SDS011;43430;48.204;11.556;2023-06-10T08:55:23;6.50;;;5.38;;
57605;SDS011;43430;48.204;11.556;2023-06-10T08:57:51;7.18;;;5.20;;
57605;SDS011;43430;48.204;11.556;2023-06-10T09:00:17;5.68;;;4.20;;
57605;SDS011;43430;48.204;11.556;2023-06-10T09:02:43;6.07;;;4.90;;
57605;SDS011;43430;48.204;11.556;2023-06-10T09:05:09;5.45;;;4.32;;
57605;SDS011;43430;48.204;11.556;2023-06-10T09:07:35;5.93;;;4.78;;
57605;SDS011;43430;48.204;11.556;2023-06-10T09:10:01;6.72;;;5.00;;
57605;SDS011;43430;48.204;11.556;2023-06-10T09:12:31;6.35;;;4.60;;
57605;SDS011;43430;48.204;11.556;2023-06-10T09:14:58;6.75;;;4.57;;
57605;SDS011;43430;48.204;11.556;2023-06-10T09:17:23;7.53;;;4.85;;
57605;SDS011;43430;48.204;11.556;2023-06-10T09:19:49;5.57;;;4.07;;
57605;SDS011;43430;48.204;11.556;2023-06-10T09:22:16;5.82;;;4.68;;
57605;SDS011;43430;48.204;11.556;2023-06-10T09:24:41;4.55;;;3.97;;
57605;SDS011;43430;48.204;11.556;2023-06-10T09:27:07;6.68;;;5.05;;
57605;SDS011;43430;48.204;11.556;2023-06-10T09:32:12;6.95;;;4.95;;
57605;SDS011;43430;48.204;11.556;2023-06-10T09:34:38;5.57;;;4.57;;
57605;SDS011;43430;48.204;11.556;2023-06-10T09:37:04;7.70;;;4.85;;
57605;SDS011;43430;48.204;11.556;2023-06-10T09:39:30;5.93;;;4.50;;
57605;SDS011;43430;48.204;11.556;2023-06-10T09:41:55;5.70;;;4.60;;
57605;SDS011;43430;48.204;11.556;2023-06-10T09:44:21;5.55;;;4.40;;
57605;SDS011;43430;48.204;11.556;2023-06-10T09:46:48;6.40;;;4.85;;
57605;SDS011;43430;48.204;11.556;2023-06-10T09:49:18;5.43;;;4.40;;
57605;SDS011;43430;48.204;11.556;2023-06-10T09:51:50;5.35;;;4.18;;
57605;SDS011;43430;48.204;11.556;2023-06-10T11:17:18;5.32;;;4.20;;
57605;SDS011;43430;48.204;11.556;2023-06-10T11:19:45;3.88;;;3.22;;
57605;SDS011;43430;48.204;11.556;2023-06-10T11:22:15;6.07;;;3.90;;
57605;SDS011;43430;48.204;11.556;2023-06-10T11:24:46;4.05;;;3.25;;
57605;SDS011;43430;48.204;11.556;2023-06-10T11:32:44;3.80;;;3.10;;
57605;SDS011;43430;48.204;11.556;2023-06-10T11:35:16;4.60;;;3.92;;
57605;SDS011;43430;48.204;11.556;2023-06-10T11:37:43;4.75;;;3.47;;
57605;SDS011;43430;48.204;11.556;2023-06-10T11:40:08;5.15;;;3.65;;
57605;SDS011;43430;48.204;11.556;2023-06-10T11:42:38;4.00;;;3.30;;
57605;SDS011;43430;48.204;11.556;2023-06-10T11:45:05;5.63;;;3.70;;
57605;SDS011;43430;48.204;11.556;2023-06-10T11:47:33;4.15;;;3.42;;
57605;SDS011;43430;48.204;11.556;2023-06-10T11:50:02;4.65;;;3.90;;
57605;SDS011;43430;48.204;11.556;2023-06-10T11:52:31;4.38;;;3.65;;
57605;SDS011;43430;48.204;11.556;2023-06-10T11:54:58;6.68;;;3.63;;
57605;SDS011;43430;48.204;11.556;2023-06-10T11:57:27;4.80;;;3.25;;
57605;SDS011;43430;48.204;11.556;2023-06-10T11:59:52;4.22;;;3.50;;
57605;SDS011;43430;48.204;11.556;2023-06-10T12:02:27;4.60;;;3.78;;
57605;SDS011;43430;48.204;11.556;2023-06-10T12:04:53;3.70;;;3.22;;
57605;SDS011;43430;48.204;11.556;2023-06-10T12:07:42;4.78;;;3.90;;
57605;SDS011;43430;48.204;11.556;2023-06-10T12:10:19;5.50;;;3.60;;
57605;SDS011;43430;48.204;11.556;2023-06-10T12:12:50;3.65;;;3.17;;
57605;SDS011;43430;48.204;11.556;2023-06-10T12:18:40;5.35;;;3.45;;
57605;SDS011;43430;48.204;11.556;2023-06-10T12:21:25;3.72;;;3.30;;
57605;SDS011;43430;48.204;11.556;2023-06-10T12:24:19;4.85;;;3.65;;
57605;SDS011;43430;48.204;11.556;2023-06-10T12:27:11;4.75;;;4.20;;
57605;SDS011;43430;48.204;11.556;2023-06-10T12:29:52;4.03;;;3.10;;
57605;SDS011;43430;48.204;11.556;2023-06-10T12:32:42;6.30;;;2.85;;
57605;SDS011;43430;48.204;11.556;2023-06-10T12:35:21;4.05;;;2.95;;
57605;SDS011;43430;48.204;11.556;2023-06-10T12:38:00;3.60;;;2.88;;
57605;SDS011;43430;48.204;11.556;2023-06-10T12:40:36;4.10;;;3.42;;
57605;SDS011;43430;48.204;11.556;2023-06-10T12:43:06;4.45;;;3.20;;
57605;SDS011;43430;48.204;11.556;2023-06-10T12:45:38;3.83;;;3.00;;
57605;SDS011;43430;48.204;11.556;2023-06-10T12:48:10;3.17;;;2.78;;
57605;SDS011;43430;48.204;11.556;2023-06-10T12:50:38;3.17;;;2.65;;
57605;SDS011;43430;48.204;11.556;2023-06-10T12:53:14;3.05;;;2.75;;
57605;SDS011;43430;48.204;11.556;2023-06-10T12:55:40;3.10;;;2.53;;
57605;SDS011;43430;48.204;11.556;2023-06-10T12:58:10;4.35;;;3.95;;
57605;SDS011;43430;48.204;11.556;2023-06-10T13:00:35;5.72;;;3.70;;
57605;SDS011;43430;48.204;11.556;2023-06-10T13:03:01;5.22;;;3.58;;
57605;SDS011;43430;48.204;11.556;2023-06-10T13:05:34;5.38;;;4.18;;
57605;SDS011;43430;48.204;11.556;2023-06-10T13:08:07;5.15;;;4.07;;
57605;SDS011;43430;48.204;11.556;2023-06-10T13:13:47;4.07;;;3.65;;
57605;SDS011;43430;48.204;11.556;2023-06-10T13:16:18;5.00;;;3.80;;
57605;SDS011;43430;48.204;11.556;2023-06-10T13:18:55;5.22;;;3.92;;
57605;SDS011;43430;48.204;11.556;2023-06-10T13:21:41;4.00;;;3.55;;
57605;SDS011;43430;48.204;11.556;2023-06-10T13:24:19;5.07;;;3.83;;
57605;SDS011;43430;48.204;11.556;2023-06-10T13:26:45;5.20;;;3.58;;
57605;SDS011;43430;48.204;11.556;2023-06-10T13:29:10;6.20;;;3.67;;
57605;SDS011;43430;48.204;11.556;2023-06-10T13:31:45;3.58;;;3.25;;
57605;SDS011;43430;48.204;11.556;2023-06-10T13:34:22;3.65;;;3.33;;
57605;SDS011;43430;48.204;11.556;2023-06-10T13:36:48;3.72;;;3.30;;
57605;SDS011;43430;48.204;11.556;2023-06-10T13:39:19;4.87;;;3.47;;
57605;SDS011;43430;48.204;11.556;2023-06-10T13:41:47;4.85;;;3.45;;
57605;SDS011;43430;48.204;11.556;2023-06-10T13:44:20;3.47;;;3.17;;
57605;SDS011;43430;48.204;11.556;2023-06-10T13:46:59;4.53;;;2.95;;
57605;SDS011;43430;48.204;11.556;2023-06-10T13:49:32;3.53;;;2.78;;
57605;SDS011;43430;48.204;11.556;2023-06-10T13:51:57;3.60;;;2.67;;
57605;SDS011;43430;48.204;11.556;2023-06-10T13:54:26;3.90;;;3.33;;
57605;SDS011;43430;48.204;11.556;2023-06-10T13:57:03;3.72;;;3.00;;
57605;SDS011;43430;48.204;11.556;2023-06-10T14:02:50;4.10;;;3.70;;
57605;SDS011;43430;48.204;11.556;2023-06-10T14:05:21;4.25;;;3.05;;
57605;SDS011;43430;48.204;11.556;2023-06-10T14:07:54;4.55;;;3.15;;
57605;SDS011;43430;48.204;11.556;2023-06-10T14:10:22;3.65;;;3.20;;
57605;SDS011;43430;48.204;11.556;2023-06-10T14:15:46;5.30;;;3.75;;
57605;SDS011;43430;48.204;11.556;2023-06-10T14:18:12;4.13;;;3.67;;
57605;SDS011;43430;48.204;11.556;2023-06-10T14:20:48;4.80;;;2.88;;
57605;SDS011;43430;48.204;11.556;2023-06-10T14:23:18;5.07;;;3.20;;
57605;SDS011;43430;48.204;11.556;2023-06-10T14:25:50;4.57;;;3.25;;
57605;SDS011;43430;48.204;11.556;2023-06-10T14:28:18;4.67;;;3.93;;
57605;SDS011;43430;48.204;11.556;2023-06-10T14:30:44;4.70;;;3.45;;
57605;SDS011;43430;48.204;11.556;2023-06-10T14:33:09;3.72;;;2.95;;
57605;SDS011;43430;48.204;11.556;2023-06-10T14:35:38;3.70;;;3.15;;
57605;SDS011;43430;48.204;11.556;2023-06-10T14:38:25;3.63;;;3.05;;
57605;SDS011;43430;48.204;11.556;2023-06-10T14:41:22;3.38;;;2.83;;
57605;SDS011;43430;48.204;11.556;2023-06-10T14:43:48;2.67;;;2.30;;
57605;SDS011;43430;48.204;11.556;2023-06-10T14:46:13;3.55;;;3.25;;
57605;SDS011;43430;48.204;11.556;2023-06-10T14:48:42;3.22;;;2.95;;
57605;SDS011;43430;48.204;11.556;2023-06-10T14:51:07;3.38;;;3.05;;
57605;SDS011;43430;48.204;11.556;2023-06-10T14:53:41;4.25;;;3.10;;
57605;SDS011;43430;48.204;11.556;2023-06-10T14:56:07;6.63;;;4.18;;
57605;SDS011;43430;48.204;11.556;2023-06-10T14:58:57;3.47;;;3.08;;
57605;SDS011;43430;48.204;11.556;2023-06-10T15:01:22;3.75;;;3.35;;
57605;SDS011;43430;48.204;11.556;2023-06-10T15:03:48;3.78;;;3.30;;
57605;SDS011;43430;48.204;11.556;2023-06-10T15:06:16;3.92;;;3.40;;
57605;SDS011;43430;48.204;11.556;2023-06-10T15:08:45;4.72;;;3.75;;
57605;SDS011;43430;48.204;11.556;2023-06-10T15:11:16;6.78;;;3.97;;
57605;SDS011;43430;48.204;11.556;2023-06-10T15:13:55;3.95;;;3.40;;
57605;SDS011;43430;48.204;11.556;2023-06-10T15:16:23;3.83;;;3.53;;
57605;SDS011;43430;48.204;11.556;2023-06-10T15:19:01;4.50;;;3.45;;
57605;SDS011;43430;48.204;11.556;2023-06-10T15:21:39;4.20;;;3.80;;
57605;SDS011;43430;48.204;11.556;2023-06-10T15:24:12;4.93;;;3.90;;
57605;SDS011;43430;48.204;11.556;2023-06-10T15:29:37;4.63;;;3.00;;
57605;SDS011;43430;48.204;11.556;2023-06-10T15:32:17;4.03;;;3.53;;
57605;SDS011;43430;48.204;11.556;2023-06-10T15:34:45;4.05;;;3.20;;
57605;SDS011;43430;48.204;11.556;2023-06-10T15:37:13;3.53;;;3.22;;
57605;SDS011;43430;48.204;11.556;2023-06-10T15:39:48;4.20;;;3.50;;
57605;SDS011;43430;48.204;11.556;2023-06-10T15:42:14;4.15;;;3.47;;
57605;SDS011;43430;48.204;11.556;2023-06-10T15:44:56;4.60;;;3.63;;
57605;SDS011;43430;48.204;11.556;2023-06-10T15:47:24;4.78;;;4.00;;
57605;SDS011;43430;48.204;11.556;2023-06-10T15:49:58;6.00;;;3.70;;
57605;SDS011;43430;48.204;11.556;2023-06-10T15:52:56;5.25;;;3.50;;
57605;SDS011;43430;48.204;11.556;2023-06-10T15:55:21;7.00;;;3.85;;
57605;SDS011;43430;48.204;11.556;2023-06-10T15:57:57;4.47;;;3.72;;
57605;SDS011;43430;48.204;11.556;2023-06-10T16:00:25;4.68;;;3.63;;
57605;SDS011;43430;48.204;11.556;2023-06-10T16:02:50;4.47;;;3.92;;
57605;SDS011;43430;48.204;11.556;2023-06-10T16:05:16;4.30;;;3.90;;
57605;SDS011;43430;48.204;11.556;2023-06-10T16:07:41;3.65;;;3.35;;
57605;SDS011;43430;48.204;11.556;2023-06-10T16:15:55;3.80;;;3.40;;
57605;SDS011;43430;48.204;11.556;2023-06-10T16:18:20;5.20;;;3.63;;
57605;SDS011;43430;48.204;11.556;2023-06-10T16:20:51;4.57;;;4.10;;
57605;SDS011;43430;48.204;11.556;2023-06-10T16:23:29;4.32;;;3.47;;
57605;SDS011;43430;48.204;11.556;2023-06-10T16:28:43;4.57;;;3.75;;
57605;SDS011;43430;48.204;11.556;2023-06-10T16:31:11;3.67;;;3.38;;
57605;SDS011;43430;48.204;11.556;2023-06-10T16:39:57;4.07;;;3.58;;
57605;SDS011;43430;48.204;11.556;2023-06-10T16:42:43;5.65;;;3.20;;
57605;SDS011;43430;48.204;11.556;2023-06-10T16:45:40;4.57;;;3.90;;
57605;SDS011;43430;48.204;11.556;2023-06-10T16:48:21;3.63;;;3.13;;
57605;SDS011;43430;48.204;11.556;2023-06-10T16:51:02;4.55;;;3.70;;
57605;SDS011;43430;48.204;11.556;2023-06-10T16:53:45;3.67;;;3.33;;
57605;SDS011;43430;48.204;11.556;2023-06-10T16:56:44;4.93;;;3.33;;
57605;SDS011;43430;48.204;11.556;2023-06-10T16:59:38;5.60;;;3.95;;
57605;SDS011;43430;48.204;11.556;2023-06-10T17:02:46;5.53;;;3.17;;
57605;SDS011;43430;48.204;11.556;2023-06-10T17:05:12;5.93;;;3.50;;